sensor_id;sensor_type;location;lat;lon;timestamp;P1;durP1;ratioP1;P2;durP2;ratioP2
79566;SDS011;69030;48.126;7.816;2023-10-13T00:00:37;7.43;;;2.92;;
79566;SDS011;69030;48.126;7.816;2023-10-13T00:03:05;4.68;;;1.95;;
79566;SDS011;69030;48.126;7.816;2023-10-13T00:05:32;4.72;;;2.58;;
79566;SDS011;69030;48.126;7.816;2023-10-13T00:08:01;6.50;;;2.42;;
79566;SDS011;69030;48.126;7.816;2023-10-13T00:10:31;5.60;;;2.20;;
79566;SDS011;69030;48.126;7.816;2023-10-13T00:12:58;5.90;;;2.80;;
79566;SDS011;69030;48.126;7.816;2023-10-13T00:15:45;6.63;;;2.97;;
79566;SDS011;69030;48.126;7.816;2023-10-13T00:18:22;4.15;;;1.98;;
79566;SDS011;69030;48.126;7.816;2023-10-13T00:21:06;4.38;;;1.70;;
79566;SDS011;69030;48.126;7.816;2023-10-13T00:26:27;5.13;;;2.33;;
79566;SDS011;69030;48.126;7.816;2023-10-13T00:29:02;6.28;;;2.30;;
79566;SDS011;69030;48.126;7.816;2023-10-13T00:31:37;4.82;;;2.85;;
79566;SDS011;69030;48.126;7.816;2023-10-13T00:34:05;7.40;;;2.33;;
79566;SDS011;69030;48.126;7.816;2023-10-13T00:39:16;4.13;;;1.30;;
79566;SDS011;69030;48.126;7.816;2023-10-13T00:41:42;8.27;;;2.28;;
79566;SDS011;69030;48.126;7.816;2023-10-13T00:44:19;3.20;;;1.77;;
79566;SDS011;69030;48.126;7.816;2023-10-13T00:46:53;4.50;;;2.60;;
79566;SDS011;69030;48.126;7.816;2023-10-13T00:49:21;3.53;;;1.55;;
79566;SDS011;69030;48.126;7.816;2023-10-13T00:51:47;5.72;;;2.03;;
79566;SDS011;69030;48.126;7.816;2023-10-13T00:54:14;5.70;;;2.15;;
79566;SDS011;69030;48.126;7.816;2023-10-13T00:56:43;5.25;;;1.98;;
79566;SDS011;69030;48.126;7.816;2023-10-13T00:59:17;4.28;;;1.20;;
79566;SDS011;69030;48.126;7.816;2023-10-13T01:01:44;5.20;;;2.13;;
79566;SDS011;69030;48.126;7.816;2023-10-13T01:04:10;6.22;;;1.63;;
79566;SDS011;69030;48.126;7.816;2023-10-13T01:06:39;5.93;;;1.67;;
79566;SDS011;69030;48.126;7.816;2023-10-13T01:09:08;5.47;;;2.33;;
79566;SDS011;69030;48.126;7.816;2023-10-13T01:11:45;5.55;;;1.90;;
79566;SDS011;69030;48.126;7.816;2023-10-13T01:14:13;4.88;;;1.70;;
79566;SDS011;69030;48.126;7.816;2023-10-13T01:16:43;4.78;;;1.33;;
79566;SDS011;69030;48.126;7.816;2023-10-13T01:19:10;7.85;;;2.00;;
79566;SDS011;69030;48.126;7.816;2023-10-13T01:21:37;4.25;;;1.50;;
79566;SDS011;69030;48.126;7.816;2023-10-13T01:24:06;5.25;;;2.45;;
79566;SDS011;69030;48.126;7.816;2023-10-13T01:26:34;3.90;;;2.40;;
79566;SDS011;69030;48.126;7.816;2023-10-13T01:29:10;5.57;;;1.75;;
79566;SDS011;69030;48.126;7.816;2023-10-13T01:31:42;4.85;;;2.00;;
79566;SDS011;69030;48.126;7.816;2023-10-13T01:34:18;6.38;;;2.33;;
79566;SDS011;69030;48.126;7.816;2023-10-13T01:36:53;5.35;;;2.65;;
79566;SDS011;69030;48.126;7.816;2023-10-13T01:39:20;4.90;;;2.90;;
79566;SDS011;69030;48.126;7.816;2023-10-13T01:41:47;4.15;;;1.88;;
79566;SDS011;69030;48.126;7.816;2023-10-13T01:44:20;3.58;;;1.75;;
79566;SDS011;69030;48.126;7.816;2023-10-13T01:46:45;4.05;;;1.95;;
79566;SDS011;69030;48.126;7.816;2023-10-13T01:49:13;7.05;;;2.92;;
79566;SDS011;69030;48.126;7.816;2023-10-13T01:56:36;5.53;;;2.38;;
79566;SDS011;69030;48.126;7.816;2023-10-13T01:59:07;8.05;;;2.30;;
79566;SDS011;69030;48.126;7.816;2023-10-13T02:01:34;5.45;;;2.78;;
79566;SDS011;69030;48.126;7.816;2023-10-13T02:04:01;9.10;;;2.25;;
79566;SDS011;69030;48.126;7.816;2023-10-13T02:06:32;5.82;;;2.40;;
79566;SDS011;69030;48.126;7.816;2023-10-13T02:09:08;5.22;;;1.83;;
79566;SDS011;69030;48.126;7.816;2023-10-13T02:11:50;7.45;;;2.50;;
79566;SDS011;69030;48.126;7.816;2023-10-13T02:14:19;5.35;;;3.05;;
79566;SDS011;69030;48.126;7.816;2023-10-13T02:16:48;9.40;;;2.58;;
79566;SDS011;69030;48.126;7.816;2023-10-13T02:19:36;4.70;;;2.15;;
79566;SDS011;69030;48.126;7.816;2023-10-13T02:22:05;6.22;;;2.55;;
79566;SDS011;69030;48.126;7.816;2023-10-13T02:24:34;6.10;;;2.85;;
79566;SDS011;69030;48.126;7.816;2023-10-13T02:26:59;7.70;;;2.40;;
79566;SDS011;69030;48.126;7.816;2023-10-13T02:29:42;4.88;;;2.05;;
79566;SDS011;69030;48.126;7.816;2023-10-13T02:32:10;10.20;;;2.65;;
79566;SDS011;69030;48.126;7.816;2023-10-13T02:34:44;10.05;;;3.10;;
79566;SDS011;69030;48.126;7.816;2023-10-13T02:37:10;5.78;;;2.38;;
79566;SDS011;69030;48.126;7.816;2023-10-13T02:39:35;7.97;;;2.45;;
79566;SDS011;69030;48.126;7.816;2023-10-13T02:42:01;6.22;;;2.22;;
79566;SDS011;69030;48.126;7.816;2023-10-13T02:44:31;5.07;;;1.83;;
79566;SDS011;69030;48.126;7.816;2023-10-13T02:47:02;5.25;;;1.90;;
79566;SDS011;69030;48.126;7.816;2023-10-13T02:49:38;7.28;;;1.98;;
79566;SDS011;69030;48.126;7.816;2023-10-13T02:52:08;4.35;;;2.50;;
79566;SDS011;69030;48.126;7.816;2023-10-13T02:54:34;6.90;;;2.25;;
79566;SDS011;69030;48.126;7.816;2023-10-13T02:57:07;6.45;;;2.33;;
79566;SDS011;69030;48.126;7.816;2023-10-13T02:59:32;5.97;;;2.67;;
79566;SDS011;69030;48.126;7.816;2023-10-13T03:02:12;4.13;;;2.15;;
79566;SDS011;69030;48.126;7.816;2023-10-13T03:04:52;6.18;;;2.78;;
79566;SDS011;69030;48.126;7.816;2023-10-13T03:07:24;6.10;;;2.97;;
79566;SDS011;69030;48.126;7.816;2023-10-13T03:09:53;5.03;;;2.75;;
79566;SDS011;69030;48.126;7.816;2023-10-13T03:12:23;5.63;;;2.88;;
79566;SDS011;69030;48.126;7.816;2023-10-13T03:14:49;7.38;;;2.95;;
79566;SDS011;69030;48.126;7.816;2023-10-13T03:17:23;8.80;;;3.53;;
79566;SDS011;69030;48.126;7.816;2023-10-13T03:20:00;6.90;;;2.95;;
79566;SDS011;69030;48.126;7.816;2023-10-13T03:22:26;5.00;;;3.28;;
79566;SDS011;69030;48.126;7.816;2023-10-13T03:24:58;5.22;;;2.95;;
79566;SDS011;69030;48.126;7.816;2023-10-13T03:27:31;5.32;;;2.67;;
79566;SDS011;69030;48.126;7.816;2023-10-13T03:30:15;8.00;;;4.28;;
79566;SDS011;69030;48.126;7.816;2023-10-13T03:32:41;9.15;;;3.72;;
79566;SDS011;69030;48.126;7.816;2023-10-13T03:35:11;7.82;;;3.30;;
79566;SDS011;69030;48.126;7.816;2023-10-13T03:37:39;4.53;;;2.45;;
79566;SDS011;69030;48.126;7.816;2023-10-13T03:40:09;7.15;;;2.72;;
79566;SDS011;69030;48.126;7.816;2023-10-13T03:42:59;6.97;;;2.83;;
79566;SDS011;69030;48.126;7.816;2023-10-13T03:45:40;4.82;;;2.85;;
79566;SDS011;69030;48.126;7.816;2023-10-13T03:48:11;6.53;;;2.65;;
79566;SDS011;69030;48.126;7.816;2023-10-13T03:50:49;6.95;;;2.75;;
79566;SDS011;69030;48.126;7.816;2023-10-13T03:53:29;9.10;;;3.28;;
79566;SDS011;69030;48.126;7.816;2023-10-13T03:56:19;8.57;;;3.88;;
79566;SDS011;69030;48.126;7.816;2023-10-13T03:58:52;9.40;;;3.78;;
79566;SDS011;69030;48.126;7.816;2023-10-13T04:01:41;5.97;;;2.80;;
79566;SDS011;69030;48.126;7.816;2023-10-13T04:04:12;8.18;;;2.58;;
79566;SDS011;69030;48.126;7.816;2023-10-13T04:06:40;6.60;;;3.42;;
79566;SDS011;69030;48.126;7.816;2023-10-13T04:09:18;12.60;;;3.05;;
79566;SDS011;69030;48.126;7.816;2023-10-13T04:11:54;6.43;;;3.88;;
79566;SDS011;69030;48.126;7.816;2023-10-13T04:14:41;7.43;;;3.20;;
79566;SDS011;69030;48.126;7.816;2023-10-13T04:17:27;5.43;;;2.85;;
79566;SDS011;69030;48.126;7.816;2023-10-13T04:19:59;8.50;;;4.05;;
79566;SDS011;69030;48.126;7.816;2023-10-13T04:22:30;9.15;;;2.85;;
79566;SDS011;69030;48.126;7.816;2023-10-13T04:25:12;6.45;;;3.78;;
79566;SDS011;69030;48.126;7.816;2023-10-13T04:30:37;6.20;;;3.33;;
79566;SDS011;69030;48.126;7.816;2023-10-13T04:33:23;7.35;;;3.42;;
79566;SDS011;69030;48.126;7.816;2023-10-13T04:36:12;7.05;;;3.03;;
79566;SDS011;69030;48.126;7.816;2023-10-13T04:38:51;12.25;;;2.53;;
79566;SDS011;69030;48.126;7.816;2023-10-13T04:44:08;10.57;;;4.32;;
79566;SDS011;69030;48.126;7.816;2023-10-13T04:46:49;7.43;;;3.40;;
79566;SDS011;69030;48.126;7.816;2023-10-13T04:49:14;6.88;;;3.35;;
79566;SDS011;69030;48.126;7.816;2023-10-13T04:51:59;8.82;;;3.13;;
79566;SDS011;69030;48.126;7.816;2023-10-13T04:54:34;8.13;;;3.97;;
79566;SDS011;69030;48.126;7.816;2023-10-13T04:57:21;6.53;;;3.50;;
79566;SDS011;69030;48.126;7.816;2023-10-13T04:59:50;7.22;;;2.95;;
79566;SDS011;69030;48.126;7.816;2023-10-13T05:02:27;8.07;;;3.85;;
79566;SDS011;69030;48.126;7.816;2023-10-13T05:05:02;7.75;;;3.83;;
79566;SDS011;69030;48.126;7.816;2023-10-13T05:07:31;7.78;;;4.43;;
79566;SDS011;69030;48.126;7.816;2023-10-13T05:10:15;9.02;;;3.75;;
79566;SDS011;69030;48.126;7.816;2023-10-13T05:12:59;5.93;;;3.17;;
79566;SDS011;69030;48.126;7.816;2023-10-13T05:15:44;11.32;;;4.18;;
79566;SDS011;69030;48.126;7.816;2023-10-13T05:18:31;6.53;;;2.55;;
79566;SDS011;69030;48.126;7.816;2023-10-13T05:21:16;8.63;;;3.33;;
79566;SDS011;69030;48.126;7.816;2023-10-13T05:24:00;5.03;;;2.97;;
79566;SDS011;69030;48.126;7.816;2023-10-13T05:26:44;6.97;;;2.97;;
79566;SDS011;69030;48.126;7.816;2023-10-13T05:29:28;7.40;;;2.72;;
79566;SDS011;69030;48.126;7.816;2023-10-13T05:32:12;7.18;;;3.22;;
79566;SDS011;69030;48.126;7.816;2023-10-13T05:34:56;6.90;;;2.58;;
79566;SDS011;69030;48.126;7.816;2023-10-13T05:37:40;6.43;;;3.78;;
79566;SDS011;69030;48.126;7.816;2023-10-13T05:40:24;9.27;;;2.95;;
79566;SDS011;69030;48.126;7.816;2023-10-13T05:43:08;7.78;;;3.08;;
79566;SDS011;69030;48.126;7.816;2023-10-13T05:45:52;7.43;;;3.00;;
79566;SDS011;69030;48.126;7.816;2023-10-13T05:48:36;10.48;;;3.33;;
79566;SDS011;69030;48.126;7.816;2023-10-13T05:51:29;7.82;;;3.17;;
79566;SDS011;69030;48.126;7.816;2023-10-13T05:53:59;10.30;;;4.30;;
79566;SDS011;69030;48.126;7.816;2023-10-13T05:56:43;7.40;;;3.15;;
79566;SDS011;69030;48.126;7.816;2023-10-13T05:59:29;6.65;;;3.45;;
79566;SDS011;69030;48.126;7.816;2023-10-13T06:02:20;6.32;;;2.47;;
79566;SDS011;69030;48.126;7.816;2023-10-13T06:05:05;4.88;;;2.83;;
79566;SDS011;69030;48.126;7.816;2023-10-13T06:07:50;6.03;;;3.17;;
79566;SDS011;69030;48.126;7.816;2023-10-13T06:10:36;9.25;;;3.83;;
79566;SDS011;69030;48.126;7.816;2023-10-13T06:13:20;10.60;;;4.50;;
79566;SDS011;69030;48.126;7.816;2023-10-13T06:16:14;6.78;;;4.55;;
79566;SDS011;69030;48.126;7.816;2023-10-13T06:19:01;10.23;;;3.42;;
79566;SDS011;69030;48.126;7.816;2023-10-13T06:21:45;8.27;;;3.15;;
79566;SDS011;69030;48.126;7.816;2023-10-13T06:24:29;10.68;;;4.07;;
79566;SDS011;69030;48.126;7.816;2023-10-13T06:27:14;6.93;;;3.15;;
79566;SDS011;69030;48.126;7.816;2023-10-13T06:29:59;7.88;;;3.78;;
79566;SDS011;69030;48.126;7.816;2023-10-13T06:32:26;9.30;;;4.70;;
79566;SDS011;69030;48.126;7.816;2023-10-13T06:34:55;6.75;;;3.50;;
79566;SDS011;69030;48.126;7.816;2023-10-13T06:37:29;4.47;;;3.10;;
79566;SDS011;69030;48.126;7.816;2023-10-13T06:40:02;6.75;;;3.10;;
79566;SDS011;69030;48.126;7.816;2023-10-13T06:42:32;8.95;;;3.33;;
79566;SDS011;69030;48.126;7.816;2023-10-13T06:45:05;6.30;;;3.17;;
79566;SDS011;69030;48.126;7.816;2023-10-13T06:47:37;8.27;;;2.78;;
79566;SDS011;69030;48.126;7.816;2023-10-13T06:50:07;7.75;;;3.50;;
79566;SDS011;69030;48.126;7.816;2023-10-13T06:52:40;6.30;;;3.47;;
79566;SDS011;69030;48.126;7.816;2023-10-13T06:55:09;6.45;;;3.25;;
79566;SDS011;69030;48.126;7.816;2023-10-13T06:57:41;8.65;;;3.25;;
79566;SDS011;69030;48.126;7.816;2023-10-13T07:00:09;9.57;;;3.40;;
79566;SDS011;69030;48.126;7.816;2023-10-13T07:02:44;6.35;;;2.53;;
79566;SDS011;69030;48.126;7.816;2023-10-13T07:05:12;6.55;;;3.92;;
79566;SDS011;69030;48.126;7.816;2023-10-13T07:07:39;7.95;;;4.22;;
79566;SDS011;69030;48.126;7.816;2023-10-13T07:10:11;7.43;;;3.30;;
79566;SDS011;69030;48.126;7.816;2023-10-13T07:12:37;8.10;;;3.42;;
79566;SDS011;69030;48.126;7.816;2023-10-13T07:15:09;10.65;;;3.35;;
79566;SDS011;69030;48.126;7.816;2023-10-13T07:17:43;8.73;;;2.58;;
79566;SDS011;69030;48.126;7.816;2023-10-13T07:20:15;8.50;;;3.15;;
79566;SDS011;69030;48.126;7.816;2023-10-13T07:22:41;10.45;;;3.30;;
79566;SDS011;69030;48.126;7.816;2023-10-13T07:25:20;6.35;;;2.85;;
79566;SDS011;69030;48.126;7.816;2023-10-13T07:27:50;7.13;;;3.05;;
79566;SDS011;69030;48.126;7.816;2023-10-13T07:30:17;7.05;;;2.88;;
79566;SDS011;69030;48.126;7.816;2023-10-13T07:32:45;8.18;;;2.67;;
79566;SDS011;69030;48.126;7.816;2023-10-13T07:35:14;8.38;;;3.40;;
79566;SDS011;69030;48.126;7.816;2023-10-13T07:37:43;10.60;;;4.13;;
79566;SDS011;69030;48.126;7.816;2023-10-13T07:40:10;7.80;;;2.72;;
79566;SDS011;69030;48.126;7.816;2023-10-13T07:42:51;12.35;;;3.67;;
79566;SDS011;69030;48.126;7.816;2023-10-13T07:45:17;6.43;;;3.03;;
79566;SDS011;69030;48.126;7.816;2023-10-13T07:47:47;9.60;;;3.17;;
79566;SDS011;69030;48.126;7.816;2023-10-13T07:50:18;9.63;;;3.47;;
79566;SDS011;69030;48.126;7.816;2023-10-13T07:52:50;10.77;;;3.33;;
79566;SDS011;69030;48.126;7.816;2023-10-13T07:55:30;9.40;;;3.83;;
79566;SDS011;69030;48.126;7.816;2023-10-13T07:57:58;9.02;;;2.78;;
79566;SDS011;69030;48.126;7.816;2023-10-13T08:00:25;6.80;;;2.80;;
79566;SDS011;69030;48.126;7.816;2023-10-13T08:03:06;7.07;;;3.28;;
79566;SDS011;69030;48.126;7.816;2023-10-13T08:05:51;6.22;;;2.38;;
79566;SDS011;69030;48.126;7.816;2023-10-13T08:08:35;8.18;;;2.88;;
79566;SDS011;69030;48.126;7.816;2023-10-13T08:11:07;6.93;;;3.90;;
79566;SDS011;69030;48.126;7.816;2023-10-13T08:16:43;7.40;;;2.80;;
79566;SDS011;69030;48.126;7.816;2023-10-13T08:19:20;15.85;;;3.30;;
79566;SDS011;69030;48.126;7.816;2023-10-13T08:22:05;13.35;;;3.08;;
79566;SDS011;69030;48.126;7.816;2023-10-13T08:24:50;6.60;;;3.17;;
79566;SDS011;69030;48.126;7.816;2023-10-13T08:27:20;5.72;;;2.58;;
79566;SDS011;69030;48.126;7.816;2023-10-13T08:29:59;10.05;;;3.38;;
79566;SDS011;69030;48.126;7.816;2023-10-13T08:32:51;8.30;;;2.42;;
79566;SDS011;69030;48.126;7.816;2023-10-13T08:35:21;9.48;;;2.25;;
79566;SDS011;69030;48.126;7.816;2023-10-13T08:37:48;8.05;;;2.05;;
79566;SDS011;69030;48.126;7.816;2023-10-13T08:40:16;9.15;;;2.10;;
79566;SDS011;69030;48.126;7.816;2023-10-13T08:43:00;9.13;;;2.70;;
79566;SDS011;69030;48.126;7.816;2023-10-13T08:47:57;7.35;;;2.25;;
79566;SDS011;69030;48.126;7.816;2023-10-13T08:50:32;5.25;;;2.13;;
79566;SDS011;69030;48.126;7.816;2023-10-13T08:56:05;10.88;;;2.65;;
79566;SDS011;69030;48.126;7.816;2023-10-13T08:58:57;6.43;;;1.92;;
79566;SDS011;69030;48.126;7.816;2023-10-13T09:01:24;11.40;;;1.98;;
79566;SDS011;69030;48.126;7.816;2023-10-13T09:04:17;6.68;;;1.60;;
79566;SDS011;69030;48.126;7.816;2023-10-13T09:07:02;5.22;;;1.42;;
79566;SDS011;69030;48.126;7.816;2023-10-13T09:09:43;3.67;;;1.77;;
79566;SDS011;69030;48.126;7.816;2023-10-13T09:15:05;5.75;;;1.60;;
79566;SDS011;69030;48.126;7.816;2023-10-13T09:17:42;6.22;;;1.85;;
79566;SDS011;69030;48.126;7.816;2023-10-13T09:20:12;6.63;;;1.63;;
79566;SDS011;69030;48.126;7.816;2023-10-13T09:22:56;6.70;;;1.60;;
79566;SDS011;69030;48.126;7.816;2023-10-13T09:28:04;5.03;;;1.58;;
79566;SDS011;69030;48.126;7.816;2023-10-13T09:30:50;9.18;;;2.90;;
79566;SDS011;69030;48.126;7.816;2023-10-13T09:33:24;7.22;;;1.38;;
79566;SDS011;69030;48.126;7.816;2023-10-13T09:35:57;6.82;;;2.22;;
79566;SDS011;69030;48.126;7.816;2023-10-13T09:38:24;4.75;;;2.13;;
79566;SDS011;69030;48.126;7.816;2023-10-13T09:40:51;3.95;;;1.45;;
79566;SDS011;69030;48.126;7.816;2023-10-13T09:43:22;7.07;;;1.58;;
79566;SDS011;69030;48.126;7.816;2023-10-13T09:45:50;6.00;;;1.58;;
79566;SDS011;69030;48.126;7.816;2023-10-13T09:48:40;6.65;;;1.45;;
79566;SDS011;69030;48.126;7.816;2023-10-13T09:51:16;9.95;;;2.35;;
79566;SDS011;69030;48.126;7.816;2023-10-13T09:56:40;7.32;;;1.55;;
79566;SDS011;69030;48.126;7.816;2023-10-13T09:59:31;4.95;;;1.35;;
79566;SDS011;69030;48.126;7.816;2023-10-13T10:02:05;4.82;;;1.42;;
79566;SDS011;69030;48.126;7.816;2023-10-13T10:04:35;8.00;;;1.30;;
79566;SDS011;69030;48.126;7.816;2023-10-13T10:07:23;7.78;;;1.55;;
79566;SDS011;69030;48.126;7.816;2023-10-13T10:09:55;5.72;;;1.95;;
79566;SDS011;69030;48.126;7.816;2023-10-13T10:17:26;6.07;;;1.75;;
79566;SDS011;69030;48.126;7.816;2023-10-13T10:19:55;8.63;;;1.52;;
79566;SDS011;69030;48.126;7.816;2023-10-13T10:22:28;4.55;;;1.55;;
79566;SDS011;69030;48.126;7.816;2023-10-13T10:25:02;7.32;;;1.88;;
79566;SDS011;69030;48.126;7.816;2023-10-13T10:27:32;5.68;;;1.55;;
79566;SDS011;69030;48.126;7.816;2023-10-13T10:29:59;7.03;;;1.63;;
79566;SDS011;69030;48.126;7.816;2023-10-13T10:32:37;3.65;;;1.23;;
79566;SDS011;69030;48.126;7.816;2023-10-13T10:35:09;5.45;;;2.30;;
79566;SDS011;69030;48.126;7.816;2023-10-13T10:37:45;5.13;;;1.65;;
79566;SDS011;69030;48.126;7.816;2023-10-13T10:40:14;7.20;;;1.67;;
79566;SDS011;69030;48.126;7.816;2023-10-13T10:43:03;2.85;;;1.30;;
79566;SDS011;69030;48.126;7.816;2023-10-13T10:45:33;4.40;;;1.95;;
79566;SDS011;69030;48.126;7.816;2023-10-13T10:47:59;5.20;;;2.13;;
79566;SDS011;69030;48.126;7.816;2023-10-13T10:50:25;4.95;;;1.70;;
79566;SDS011;69030;48.126;7.816;2023-10-13T10:53:03;9.43;;;1.77;;
79566;SDS011;69030;48.126;7.816;2023-10-13T10:55:34;4.43;;;1.75;;
79566;SDS011;69030;48.126;7.816;2023-10-13T10:58:01;5.03;;;2.13;;
79566;SDS011;69030;48.126;7.816;2023-10-13T11:00:30;6.63;;;1.77;;
79566;SDS011;69030;48.126;7.816;2023-10-13T11:03:15;3.97;;;1.35;;
79566;SDS011;69030;48.126;7.816;2023-10-13T11:08:21;5.15;;;1.85;;
79566;SDS011;69030;48.126;7.816;2023-10-13T11:10:57;3.38;;;1.92;;
79566;SDS011;69030;48.126;7.816;2023-10-13T11:13:43;5.88;;;1.63;;
79566;SDS011;69030;48.126;7.816;2023-10-13T11:16:22;4.72;;;1.45;;
79566;SDS011;69030;48.126;7.816;2023-10-13T11:19:02;2.97;;;1.05;;
79566;SDS011;69030;48.126;7.816;2023-10-13T11:21:30;6.15;;;1.38;;
79566;SDS011;69030;48.126;7.816;2023-10-13T11:23:56;3.90;;;1.30;;
79566;SDS011;69030;48.126;7.816;2023-10-13T11:26:32;6.65;;;1.80;;
79566;SDS011;69030;48.126;7.816;2023-10-13T11:28:58;5.20;;;1.55;;
79566;SDS011;69030;48.126;7.816;2023-10-13T11:31:29;5.93;;;1.33;;
79566;SDS011;69030;48.126;7.816;2023-10-13T11:33:55;3.88;;;1.17;;
79566;SDS011;69030;48.126;7.816;2023-10-13T11:36:21;5.88;;;1.27;;
79566;SDS011;69030;48.126;7.816;2023-10-13T11:38:49;4.78;;;1.63;;
79566;SDS011;69030;48.126;7.816;2023-10-13T11:41:16;4.38;;;1.65;;
79566;SDS011;69030;48.126;7.816;2023-10-13T11:43:46;5.57;;;1.35;;
79566;SDS011;69030;48.126;7.816;2023-10-13T11:46:15;4.85;;;1.73;;
79566;SDS011;69030;48.126;7.816;2023-10-13T11:48:43;2.80;;;1.83;;
79566;SDS011;69030;48.126;7.816;2023-10-13T11:51:13;5.50;;;1.77;;
79566;SDS011;69030;48.126;7.816;2023-10-13T11:53:45;7.03;;;1.80;;
79566;SDS011;69030;48.126;7.816;2023-10-13T11:56:18;2.92;;;0.88;;
79566;SDS011;69030;48.126;7.816;2023-10-13T11:58:47;5.88;;;1.80;;
79566;SDS011;69030;48.126;7.816;2023-10-13T12:01:14;5.28;;;1.88;;
79566;SDS011;69030;48.126;7.816;2023-10-13T12:03:43;3.80;;;1.95;;
79566;SDS011;69030;48.126;7.816;2023-10-13T12:06:29;5.70;;;1.58;;
79566;SDS011;69030;48.126;7.816;2023-10-13T12:09:13;6.97;;;1.63;;
79566;SDS011;69030;48.126;7.816;2023-10-13T12:12:03;5.07;;;1.95;;
79566;SDS011;69030;48.126;7.816;2023-10-13T12:14:29;5.20;;;1.63;;
79566;SDS011;69030;48.126;7.816;2023-10-13T12:17:02;7.05;;;1.35;;
79566;SDS011;69030;48.126;7.816;2023-10-13T12:19:29;4.03;;;1.75;;
79566;SDS011;69030;48.126;7.816;2023-10-13T12:21:54;4.63;;;1.58;;
79566;SDS011;69030;48.126;7.816;2023-10-13T12:27:04;6.13;;;1.40;;
79566;SDS011;69030;48.126;7.816;2023-10-13T12:29:51;5.15;;;1.55;;
79566;SDS011;69030;48.126;7.816;2023-10-13T12:32:17;4.65;;;1.38;;
79566;SDS011;69030;48.126;7.816;2023-10-13T12:34:50;9.57;;;1.35;;
79566;SDS011;69030;48.126;7.816;2023-10-13T12:37:24;3.38;;;1.35;;
79566;SDS011;69030;48.126;7.816;2023-10-13T12:40:08;7.10;;;1.75;;
79566;SDS011;69030;48.126;7.816;2023-10-13T12:42:53;9.02;;;1.80;;
79566;SDS011;69030;48.126;7.816;2023-10-13T12:45:40;5.13;;;1.63;;
79566;SDS011;69030;48.126;7.816;2023-10-13T12:48:25;10.98;;;1.33;;
79566;SDS011;69030;48.126;7.816;2023-10-13T12:51:10;5.55;;;1.60;;
79566;SDS011;69030;48.126;7.816;2023-10-13T12:53:46;6.53;;;1.67;;
79566;SDS011;69030;48.126;7.816;2023-10-13T12:56:15;7.85;;;1.60;;
79566;SDS011;69030;48.126;7.816;2023-10-13T12:58:41;4.35;;;1.88;;
79566;SDS011;69030;48.126;7.816;2023-10-13T13:01:10;4.25;;;1.20;;
79566;SDS011;69030;48.126;7.816;2023-10-13T13:03:38;2.65;;;1.15;;
79566;SDS011;69030;48.126;7.816;2023-10-13T13:06:14;4.93;;;1.17;;
79566;SDS011;69030;48.126;7.816;2023-10-13T13:08:42;5.88;;;1.27;;
79566;SDS011;69030;48.126;7.816;2023-10-13T13:11:09;5.00;;;1.33;;
79566;SDS011;69030;48.126;7.816;2023-10-13T13:13:37;4.07;;;1.77;;
79566;SDS011;69030;48.126;7.816;2023-10-13T13:16:03;4.53;;;0.82;;
79566;SDS011;69030;48.126;7.816;2023-10-13T13:18:32;2.80;;;1.30;;
79566;SDS011;69030;48.126;7.816;2023-10-13T13:20:59;4.97;;;1.50;;
79566;SDS011;69030;48.126;7.816;2023-10-13T13:23:25;2.60;;;1.38;;
79566;SDS011;69030;48.126;7.816;2023-10-13T13:25:51;9.10;;;1.48;;
79566;SDS011;69030;48.126;7.816;2023-10-13T13:28:17;6.88;;;1.10;;
79566;SDS011;69030;48.126;7.816;2023-10-13T13:30:43;4.43;;;1.10;;
79566;SDS011;69030;48.126;7.816;2023-10-13T13:33:09;6.47;;;1.10;;
79566;SDS011;69030;48.126;7.816;2023-10-13T13:35:38;12.00;;;1.77;;
79566;SDS011;69030;48.126;7.816;2023-10-13T13:38:04;3.80;;;1.25;;
79566;SDS011;69030;48.126;7.816;2023-10-13T13:40:38;4.88;;;1.27;;
79566;SDS011;69030;48.126;7.816;2023-10-13T13:43:04;2.92;;;1.35;;
79566;SDS011;69030;48.126;7.816;2023-10-13T13:45:31;5.43;;;1.30;;
79566;SDS011;69030;48.126;7.816;2023-10-13T13:47:57;3.72;;;1.15;;
79566;SDS011;69030;48.126;7.816;2023-10-13T13:50:24;3.10;;;1.25;;
79566;SDS011;69030;48.126;7.816;2023-10-13T13:52:52;4.32;;;1.17;;
79566;SDS011;69030;48.126;7.816;2023-10-13T13:55:38;4.72;;;1.90;;
79566;SDS011;69030;48.126;7.816;2023-10-13T13:58:05;5.55;;;1.40;;
79566;SDS011;69030;48.126;7.816;2023-10-13T14:00:33;5.88;;;1.23;;
79566;SDS011;69030;48.126;7.816;2023-10-13T14:03:13;3.85;;;1.88;;
79566;SDS011;69030;48.126;7.816;2023-10-13T14:05:56;5.22;;;1.00;;
79566;SDS011;69030;48.126;7.816;2023-10-13T14:08:25;3.97;;;1.13;;
79566;SDS011;69030;48.126;7.816;2023-10-13T14:10:52;3.72;;;1.73;;
79566;SDS011;69030;48.126;7.816;2023-10-13T14:13:36;5.00;;;1.52;;
79566;SDS011;69030;48.126;7.816;2023-10-13T14:16:21;9.68;;;1.63;;
79566;SDS011;69030;48.126;7.816;2023-10-13T14:18:50;5.00;;;1.25;;
79566;SDS011;69030;48.126;7.816;2023-10-13T14:21:16;4.63;;;0.90;;
79566;SDS011;69030;48.126;7.816;2023-10-13T14:23:45;5.60;;;1.48;;
79566;SDS011;69030;48.126;7.816;2023-10-13T14:26:13;3.00;;;0.82;;
79566;SDS011;69030;48.126;7.816;2023-10-13T14:28:39;6.05;;;1.55;;
79566;SDS011;69030;48.126;7.816;2023-10-13T14:31:15;3.75;;;1.15;;
79566;SDS011;69030;48.126;7.816;2023-10-13T14:33:41;5.20;;;1.25;;
79566;SDS011;69030;48.126;7.816;2023-10-13T14:36:09;3.65;;;1.15;;
79566;SDS011;69030;48.126;7.816;2023-10-13T14:38:35;7.20;;;1.15;;
79566;SDS011;69030;48.126;7.816;2023-10-13T14:41:00;2.88;;;1.60;;
79566;SDS011;69030;48.126;7.816;2023-10-13T14:43:26;5.78;;;1.98;;
79566;SDS011;69030;48.126;7.816;2023-10-13T14:45:53;3.42;;;1.17;;
79566;SDS011;69030;48.126;7.816;2023-10-13T14:48:18;4.10;;;1.42;;
79566;SDS011;69030;48.126;7.816;2023-10-13T14:50:45;5.68;;;1.55;;
79566;SDS011;69030;48.126;7.816;2023-10-13T14:53:11;2.97;;;1.25;;
79566;SDS011;69030;48.126;7.816;2023-10-13T14:55:37;2.53;;;0.98;;
79566;SDS011;69030;48.126;7.816;2023-10-13T14:58:07;5.05;;;1.00;;
79566;SDS011;69030;48.126;7.816;2023-10-13T15:00:35;13.77;;;1.50;;
79566;SDS011;69030;48.126;7.816;2023-10-13T15:03:02;4.43;;;1.25;;
79566;SDS011;69030;48.126;7.816;2023-10-13T15:05:31;3.67;;;0.98;;
79566;SDS011;69030;48.126;7.816;2023-10-13T15:07:58;4.10;;;1.25;;
79566;SDS011;69030;48.126;7.816;2023-10-13T15:10:23;4.85;;;1.17;;
79566;SDS011;69030;48.126;7.816;2023-10-13T15:15:17;4.75;;;1.13;;
79566;SDS011;69030;48.126;7.816;2023-10-13T15:17:44;5.90;;;1.17;;
79566;SDS011;69030;48.126;7.816;2023-10-13T15:20:10;5.63;;;1.25;;
79566;SDS011;69030;48.126;7.816;2023-10-13T15:22:44;5.85;;;1.67;;
79566;SDS011;69030;48.126;7.816;2023-10-13T15:25:12;9.27;;;1.25;;
79566;SDS011;69030;48.126;7.816;2023-10-13T15:28:02;6.35;;;1.67;;
79566;SDS011;69030;48.126;7.816;2023-10-13T15:30:30;5.15;;;1.65;;
79566;SDS011;69030;48.126;7.816;2023-10-13T15:35:38;6.18;;;1.38;;
79566;SDS011;69030;48.126;7.816;2023-10-13T15:38:08;2.65;;;0.88;;
79566;SDS011;69030;48.126;7.816;2023-10-13T15:40:39;4.38;;;1.80;;
79566;SDS011;69030;48.126;7.816;2023-10-13T15:43:19;4.57;;;1.83;;
79566;SDS011;69030;48.126;7.816;2023-10-13T15:45:45;7.78;;;1.38;;
79566;SDS011;69030;48.126;7.816;2023-10-13T15:48:12;6.82;;;2.45;;
79566;SDS011;69030;48.126;7.816;2023-10-13T15:50:40;3.75;;;1.58;;
79566;SDS011;69030;48.126;7.816;2023-10-13T15:53:06;5.30;;;1.40;;
79566;SDS011;69030;48.126;7.816;2023-10-13T15:55:36;6.45;;;1.73;;
79566;SDS011;69030;48.126;7.816;2023-10-13T15:58:02;5.50;;;1.17;;
79566;SDS011;69030;48.126;7.816;2023-10-13T16:00:36;8.35;;;1.67;;
79566;SDS011;69030;48.126;7.816;2023-10-13T16:03:02;9.90;;;2.70;;
79566;SDS011;69030;48.126;7.816;2023-10-13T16:05:35;7.95;;;2.28;;
79566;SDS011;69030;48.126;7.816;2023-10-13T16:08:02;5.25;;;1.95;;
79566;SDS011;69030;48.126;7.816;2023-10-13T16:10:28;5.68;;;1.25;;
79566;SDS011;69030;48.126;7.816;2023-10-13T16:12:54;6.57;;;1.67;;